Time;durP1;ratioP1;P1;durP2;ratioP2;P2;SDS_P1;SDS_P2;PMS_P1;PMS_P2;Temp;Humidity;BMP_temperature;BMP_pressure;BME280_temperature;BME280_humidity;BME280_pressure;Samples;Min_cycle;Max_cycle;Signal;HPM_P1;HPM_P2
2022/07/05 00:00:17;;;;;;;13.75;7.80;;;;;;;;;;5117022;28;20221;-48
2022/07/05 00:03:02;;;;;;;13.95;8.73;;;;;;;;;;5117749;28;20198;-48
2022/07/05 00:05:29;;;;;;;13.70;9.15;;;;;;;;;;5117010;28;20623;-46
2022/07/05 00:07:56;;;;;;;9.63;8.40;;;;;;;;;;5117397;28;20271;-48
2022/07/05 00:10:23;;;;;;;11.13;7.82;;;;;;;;;;5117006;28;20222;-46
2022/07/05 00:12:50;;;;;;;13.00;7.43;;;;;;;;;;5116737;28;20209;-47
2022/07/05 00:15:18;;;;;;;10.73;7.63;;;;;;;;;;5117170;28;20198;-47
2022/07/05 00:17:45;;;;;;;10.25;7.00;;;;;;;;;;5116931;28;20198;-49
2022/07/05 00:20:12;;;;;;;15.38;7.72;;;;;;;;;;5116844;28;20259;-48
2022/07/05 00:22:39;;;;;;;8.82;7.45;;;;;;;;;;5116165;28;20507;-48
2022/07/05 00:25:07;;;;;;;11.48;7.28;;;;;;;;;;5116416;28;20258;-47
2022/07/05 00:27:34;;;;;;;14.80;8.27;;;;;;;;;;5116833;28;20201;-48
2022/07/05 00:30:01;;;;;;;11.45;7.43;;;;;;;;;;5116414;28;20226;-47
2022/07/05 00:32:28;;;;;;;10.35;6.95;;;;;;;;;;5116882;28;20237;-48
2022/07/05 00:34:55;;;;;;;11.23;7.70;;;;;;;;;;5115947;28;20198;-46
2022/07/05 00:37:22;;;;;;;10.75;7.97;;;;;;;;;;5116458;28;20206;-47
2022/07/05 00:39:49;;;;;;;18.55;7.13;;;;;;;;;;5116707;28;20222;-48
2022/07/05 00:42:16;;;;;;;9.23;7.20;;;;;;;;;;5115240;28;20223;-48
2022/07/05 00:44:44;;;;;;;12.77;10.48;;;;;;;;;;5116525;28;20550;-47
2022/07/05 00:47:11;;;;;;;11.70;9.80;;;;;;;;;;5115519;28;20206;-47
2022/07/05 00:49:40;;;;;;;10.27;8.98;;;;;;;;;;5116328;28;20246;-47
2022/07/05 00:52:07;;;;;;;12.23;9.25;;;;;;;;;;5116215;28;20206;-47
2022/07/05 00:54:49;;;;;;;17.95;9.15;;;;;;;;;;5116490;28;20209;-48
2022/07/05 00:57:20;;;;;;;12.07;9.15;;;;;;;;;;5116317;28;20212;-47
2022/07/05 00:59:47;;;;;;;13.45;8.98;;;;;;;;;;5116245;28;20220;-48
2022/07/05 01:02:14;;;;;;;13.60;9.00;;;;;;;;;;5116618;28;20226;-46
2022/07/05 01:04:50;;;;;;;11.27;9.73;;;;;;;;;;5115171;28;20186;-50
2022/07/05 01:07:22;;;;;;;13.80;11.18;;;;;;;;;;5116292;28;20233;-46
2022/07/05 01:09:49;;;;;;;21.38;10.38;;;;;;;;;;5115901;28;20244;-47
2022/07/05 01:12:17;;;;;;;15.90;10.20;;;;;;;;;;5115970;28;20220;-47
2022/07/05 01:14:44;;;;;;;14.50;9.90;;;;;;;;;;5115187;28;20517;-47
2022/07/05 01:17:13;;;;;;;10.23;8.13;;;;;;;;;;5115834;28;20205;-49
2022/07/05 01:19:40;;;;;;;11.02;8.88;;;;;;;;;;5115358;28;20209;-47
2022/07/05 01:22:20;;;;;;;12.77;8.52;;;;;;;;;;5114814;28;20206;-49
2022/07/05 01:24:48;;;;;;;14.32;8.40;;;;;;;;;;5115986;28;20206;-47
2022/07/05 01:27:16;;;;;;;10.93;8.27;;;;;;;;;;5115836;28;20217;-47
2022/07/05 01:29:43;;;;;;;13.07;8.52;;;;;;;;;;5114481;28;20226;-47
2022/07/05 01:32:11;;;;;;;14.07;7.32;;;;;;;;;;5116325;28;20209;-47
2022/07/05 01:34:38;;;;;;;10.55;8.63;;;;;;;;;;5114423;28;20209;-50
2022/07/05 01:37:06;;;;;;;20.05;9.05;;;;;;;;;;5115346;28;20198;-47
2022/07/05 01:39:34;;;;;;;9.65;7.78;;;;;;;;;;5115442;28;20206;-47
2022/07/05 01:42:02;;;;;;;15.57;8.50;;;;;;;;;;5115182;28;20289;-48
2022/07/05 01:44:30;;;;;;;11.48;8.18;;;;;;;;;;5114992;28;20209;-49
2022/07/05 01:47:03;;;;;;;19.00;9.05;;;;;;;;;;5115478;28;20198;-48
2022/07/05 01:49:35;;;;;;;16.83;8.88;;;;;;;;;;5097482;28;20209;-48
2022/07/05 01:52:08;;;;;;;16.85;7.95;;;;;;;;;;5115081;28;20209;-46
2022/07/05 01:54:35;;;;;;;24.80;7.53;;;;;;;;;;5114122;28;20222;-47
2022/07/05 01:57:07;;;;;;;21.13;7.97;;;;;;;;;;5115118;28;20282;-46
2022/07/05 01:59:35;;;;;;;19.27;8.10;;;;;;;;;;5114357;28;20190;-47
2022/07/05 02:02:03;;;;;;;16.70;7.47;;;;;;;;;;5114966;28;20249;-47
2022/07/05 02:04:33;;;;;;;28.73;8.27;;;;;;;;;;5114053;28;20193;-49
2022/07/05 02:07:08;;;;;;;23.52;8.05;;;;;;;;;;5114889;28;20198;-48
2022/07/05 02:09:37;;;;;;;17.45;8.57;;;;;;;;;;5114131;28;20225;-47
2022/07/05 02:12:05;;;;;;;17.00;9.05;;;;;;;;;;5114047;28;20255;-48
2022/07/05 02:14:33;;;;;;;14.48;7.68;;;;;;;;;;5114981;28;20263;-47
2022/07/05 02:17:02;;;;;;;14.07;8.88;;;;;;;;;;5114821;28;20251;-47
2022/07/05 02:19:30;;;;;;;16.30;9.13;;;;;;;;;;5114030;28;20201;-49
2022/07/05 02:21:58;;;;;;;12.20;8.43;;;;;;;;;;5113997;28;20263;-47
2022/07/05 02:24:26;;;;;;;13.85;8.68;;;;;;;;;;5113981;28;20213;-47
2022/07/05 02:27:02;;;;;;;17.35;8.27;;;;;;;;;;5114961;28;20281;-46
2022/07/05 02:29:30;;;;;;;15.40;8.85;;;;;;;;;;5097149;28;20304;-47
2022/07/05 02:31:59;;;;;;;17.70;7.70;;;;;;;;;;5113678;28;20201;-48
2022/07/05 02:34:27;;;;;;;10.77;7.43;;;;;;;;;;5113700;28;20202;-48
2022/07/05 02:36:55;;;;;;;10.77;8.23;;;;;;;;;;5113902;28;20220;-47
2022/07/05 02:39:22;;;;;;;15.93;7.93;;;;;;;;;;5113591;28;20645;-48
2022/07/05 02:41:51;;;;;;;17.77;7.18;;;;;;;;;;5114028;28;20202;-47
2022/07/05 02:44:19;;;;;;;20.52;7.75;;;;;;;;;;5114301;28;20202;-47
2022/07/05 02:46:49;;;;;;;24.20;7.72;;;;;;;;;;5116731;28;20209;-47
2022/07/05 02:49:16;;;;;;;16.23;8.02;;;;;;;;;;5117487;28;20212;-46
2022/07/05 02:51:43;;;;;;;15.18;7.82;;;;;;;;;;5117538;28;20210;-46
2022/07/05 02:54:12;;;;;;;12.50;8.45;;;;;;;;;;5126018;27;20209;-47
2022/07/05 02:56:40;;;;;;;32.65;8.13;;;;;;;;;;5137342;27;20204;-47
2022/07/05 02:59:09;;;;;;;27.85;7.90;;;;;;;;;;5136771;27;20205;-46
2022/07/05 03:01:37;;;;;;;21.45;7.47;;;;;;;;;;5137898;27;20316;-46
2022/07/05 03:04:09;;;;;;;24.25;7.88;;;;;;;;;;5138136;27;20186;-46
2022/07/05 03:06:39;;;;;;;33.80;9.15;;;;;;;;;;5138634;27;20204;-46
2022/07/05 03:09:06;;;;;;;35.22;8.73;;;;;;;;;;5137765;27;20197;-46
2022/07/05 03:11:35;;;;;;;26.73;8.63;;;;;;;;;;5137888;27;20225;-46
2022/07/05 03:14:03;;;;;;;30.48;8.52;;;;;;;;;;5137728;27;20205;-46
2022/07/05 03:16:30;;;;;;;22.48;8.52;;;;;;;;;;5172375;27;20591;-48
2022/07/05 03:18:57;;;;;;;20.58;9.15;;;;;;;;;;5137860;27;20278;-46
2022/07/05 03:21:25;;;;;;;24.60;8.75;;;;;;;;;;5138456;27;20212;-50
2022/07/05 03:23:52;;;;;;;25.27;9.60;;;;;;;;;;5138157;27;20197;-48
2022/07/05 03:26:19;;;;;;;16.42;8.45;;;;;;;;;;5137537;27;20208;-47
2022/07/05 03:28:47;;;;;;;18.83;9.32;;;;;;;;;;5172233;27;20212;-48
2022/07/05 03:31:14;;;;;;;20.73;8.80;;;;;;;;;;5138324;27;20255;-47
2022/07/05 03:33:42;;;;;;;17.05;9.82;;;;;;;;;;5137247;27;20197;-48
2022/07/05 03:36:11;;;;;;;14.10;9.25;;;;;;;;;;5172077;27;20575;-47
2022/07/05 03:38:40;;;;;;;17.52;9.30;;;;;;;;;;5137444;27;20258;-47
2022/07/05 03:41:08;;;;;;;16.85;9.52;;;;;;;;;;5136925;27;20739;-48
2022/07/05 03:43:35;;;;;;;24.02;9.77;;;;;;;;;;5138824;27;20202;-49
2022/07/05 03:46:02;;;;;;;17.08;9.48;;;;;;;;;;5137334;27;20197;-51
2022/07/05 03:48:32;;;;;;;22.40;10.32;;;;;;;;;;5137389;27;20208;-48
2022/07/05 03:51:10;;;;;;;22.80;10.55;;;;;;;;;;5137435;27;20233;-48
2022/07/05 03:53:37;;;;;;;15.80;10.00;;;;;;;;;;5137711;27;20538;-48
2022/07/05 03:56:05;;;;;;;21.45;10.35;;;;;;;;;;5137059;27;20198;-52
2022/07/05 03:58:34;;;;;;;20.73;11.00;;;;;;;;;;5136314;27;20205;-52
2022/07/05 04:01:01;;;;;;;22.17;10.98;;;;;;;;;;5133018;27;20225;-57
2022/07/05 04:03:29;;;;;;;21.40;10.48;;;;;;;;;;5135885;27;20285;-57
2022/07/05 04:05:58;;;;;;;86.82;37.65;;;;;;;;;;5125961;27;20455;-51
2022/07/05 04:08:26;;;;;;;24.08;12.75;;;;;;;;;;5133739;27;20621;-49
2022/07/05 04:10:53;;;;;;;18.58;11.07;;;;;;;;;;5142747;27;20228;-58
2022/07/05 04:13:22;;;;;;;18.33;10.95;;;;;;;;;;5139061;27;20224;-49
2022/07/05 04:15:53;;;;;;;16.33;11.30;;;;;;;;;;5151708;27;20229;-53
2022/07/05 04:18:21;;;;;;;16.23;10.60;;;;;;;;;;5131609;27;20562;-49
2022/07/05 04:20:49;;;;;;;16.08;10.98;;;;;;;;;;5165646;27;20365;-47
2022/07/05 04:23:16;;;;;;;18.13;11.63;;;;;;;;;;5156151;27;20225;-48
2022/07/05 04:25:44;;;;;;;21.02;12.85;;;;;;;;;;5129597;27;20317;-53
2022/07/05 04:28:31;;;;;;;23.20;11.43;;;;;;;;;;5115343;27;20682;-49
2022/07/05 04:31:00;;;;;;;16.80;12.05;;;;;;;;;;5148730;27;20666;-48
2022/07/05 04:33:31;;;;;;;19.23;11.93;;;;;;;;;;5114673;28;20257;-51
2022/07/05 04:35:59;;;;;;;16.25;11.68;;;;;;;;;;5148225;27;20319;-53
2022/07/05 04:38:26;;;;;;;17.92;11.90;;;;;;;;;;5114399;28;20221;-52
2022/07/05 04:40:56;;;;;;;14.65;11.48;;;;;;;;;;5114358;28;20685;-51
2022/07/05 04:43:24;;;;;;;19.25;10.85;;;;;;;;;;5114357;28;20686;-48
2022/07/05 04:45:51;;;;;;;12.50;10.80;;;;;;;;;;5114750;28;20260;-48
2022/07/05 04:48:23;;;;;;;14.07;10.52;;;;;;;;;;5114310;28;20221;-48
2022/07/05 04:50:50;;;;;;;14.48;9.20;;;;;;;;;;5117738;27;20357;-50
2022/07/05 04:53:17;;;;;;;14.90;9.48;;;;;;;;;;5154929;27;20630;-52
2022/07/05 04:55:44;;;;;;;9.98;7.95;;;;;;;;;;5155335;27;20196;-53
2022/07/05 04:58:11;;;;;;;10.20;6.47;;;;;;;;;;5155706;27;20200;-54
2022/07/05 05:00:38;;;;;;;8.82;6.63;;;;;;;;;;5156990;27;20237;-54
2022/07/05 05:03:05;;;;;;;8.20;6.78;;;;;;;;;;5157429;27;20291;-47
2022/07/05 05:05:32;;;;;;;9.90;7.00;;;;;;;;;;5157319;27;20200;-46
2022/07/05 05:07:59;;;;;;;8.90;6.47;;;;;;;;;;5157005;27;20268;-47
2022/07/05 05:10:26;;;;;;;9.23;6.15;;;;;;;;;;5138484;27;20243;-50
2022/07/05 05:12:53;;;;;;;9.20;5.97;;;;;;;;;;5157155;27;20208;-49
2022/07/05 05:15:21;;;;;;;10.40;5.97;;;;;;;;;;5157451;27;20196;-53
2022/07/05 05:17:47;;;;;;;9.63;7.18;;;;;;;;;;5157083;27;20235;-50
2022/07/05 05:20:18;;;;;;;8.48;6.00;;;;;;;;;;5156971;27;20641;-53
2022/07/05 05:22:46;;;;;;;13.57;6.93;;;;;;;;;;5157046;27;20601;-54
2022/07/05 05:25:13;;;;;;;10.63;7.07;;;;;;;;;;5157073;27;20205;-51
2022/07/05 05:27:45;;;;;;;9.75;6.47;;;;;;;;;;5157002;27;20196;-49
2022/07/05 05:30:16;;;;;;;8.40;5.90;;;;;;;;;;5156958;27;20224;-51
2022/07/05 05:32:43;;;;;;;10.85;5.55;;;;;;;;;;5157234;27;20222;-52
2022/07/05 05:35:10;;;;;;;7.70;5.82;;;;;;;;;;5156910;27;20283;-49
2022/07/05 05:37:52;;;;;;;8.38;5.45;;;;;;;;;;5156541;27;20200;-51
2022/07/05 05:40:21;;;;;;;10.05;6.00;;;;;;;;;;5127675;27;20270;-48
2022/07/05 05:42:51;;;;;;;8.63;5.55;;;;;;;;;;5155522;27;20228;-53
2022/07/05 05:45:18;;;;;;;9.20;6.13;;;;;;;;;;5136934;27;20571;-51
2022/07/05 05:47:54;;;;;;;6.53;5.80;;;;;;;;;;5135399;27;20225;-55
2022/07/05 05:50:22;;;;;;;8.05;6.63;;;;;;;;;;5145244;27;20290;-50
2022/07/05 05:52:50;;;;;;;8.23;5.75;;;;;;;;;;5138388;27;20216;-50
2022/07/05 05:55:18;;;;;;;9.05;6.00;;;;;;;;;;5141093;27;20237;-48
2022/07/05 05:57:45;;;;;;;8.20;5.78;;;;;;;;;;5134722;28;20221;-55
2022/07/05 06:00:13;;;;;;;9.68;6.32;;;;;;;;;;5134504;27;20252;-48
2022/07/05 06:02:40;;;;;;;8.68;6.38;;;;;;;;;;5134991;27;20262;-50
2022/07/05 06:05:07;;;;;;;7.03;5.78;;;;;;;;;;5134213;27;20256;-50
2022/07/05 06:07:51;;;;;;;7.65;6.43;;;;;;;;;;5134278;27;20289;-51
2022/07/05 06:10:21;;;;;;;6.82;5.72;;;;;;;;;;5134023;27;20236;-54
2022/07/05 06:12:49;;;;;;;8.25;5.68;;;;;;;;;;5134471;27;20229;-53
2022/07/05 06:15:17;;;;;;;10.30;5.90;;;;;;;;;;5134439;27;20302;-48
2022/07/05 06:17:44;;;;;;;17.50;6.35;;;;;;;;;;5133481;28;20696;-48
2022/07/05 06:20:16;;;;;;;8.00;6.18;;;;;;;;;;5134524;27;20225;-50
2022/07/05 06:22:43;;;;;;;7.57;6.25;;;;;;;;;;5137912;27;20233;-51
2022/07/05 06:25:10;;;;;;;6.20;5.60;;;;;;;;;;5150451;27;20220;-48
2022/07/05 06:27:56;;;;;;;6.82;5.80;;;;;;;;;;5159479;27;20220;-51
2022/07/05 06:30:25;;;;;;;9.10;5.47;;;;;;;;;;5159212;27;20221;-50
2022/07/05 06:32:53;;;;;;;7.43;5.38;;;;;;;;;;5159224;27;20311;-53
2022/07/05 06:35:20;;;;;;;6.95;5.30;;;;;;;;;;5159326;27;20221;-49
2022/07/05 06:37:54;;;;;;;9.18;5.15;;;;;;;;;;5158057;27;20286;-58
2022/07/05 06:40:28;;;;;;;7.28;5.28;;;;;;;;;;5158726;27;20683;-52
2022/07/05 06:42:57;;;;;;;7.70;5.47;;;;;;;;;;5158745;27;20227;-52
2022/07/05 06:45:31;;;;;;;8.43;5.35;;;;;;;;;;5158431;27;20221;-51
2022/07/05 06:48:06;;;;;;;7.43;5.50;;;;;;;;;;5158274;27;20244;-56
2022/07/05 06:50:35;;;;;;;8.98;5.30;;;;;;;;;;5159157;27;20244;-53
2022/07/05 06:53:03;;;;;;;6.25;5.40;;;;;;;;;;5157463;27;20232;-54
2022/07/05 06:55:32;;;;;;;10.90;5.28;;;;;;;;;;5143117;27;20221;-53
2022/07/05 06:58:01;;;;;;;7.68;5.20;;;;;;;;;;5137747;27;20225;-56
2022/07/05 07:00:44;;;;;;;7.85;4.70;;;;;;;;;;5137911;27;20248;-57
2022/07/05 07:03:31;;;;;;;6.20;4.43;;;;;;;;;;5108189;27;20217;-52
2022/07/05 07:06:19;;;;;;;6.90;4.38;;;;;;;;;;5138170;27;20236;-52
2022/07/05 07:11:31;;;;;;;7.85;5.18;;;;;;;;;;5137821;27;20657;-51
2022/07/05 07:13:58;;;;;;;8.00;5.13;;;;;;;;;;5137600;27;20285;-52
2022/07/05 07:16:25;;;;;;;7.18;4.93;;;;;;;;;;5137918;27;20320;-56
2022/07/05 07:18:52;;;;;;;7.28;4.95;;;;;;;;;;5137137;27;20225;-53
2022/07/05 07:21:37;;;;;;;5.90;4.75;;;;;;;;;;5137906;27;20266;-53
2022/07/05 07:24:06;;;;;;;9.63;4.95;;;;;;;;;;5139541;27;20217;-56
2022/07/05 07:27:02;;;;;;;5.45;4.80;;;;;;;;;;5158641;27;20220;-55
2022/07/05 07:29:20;;;;;;;5.90;4.50;;;;;;;;;;5158111;27;20243;-57
2022/07/05 07:31:47;;;;;;;6.70;4.90;;;;;;;;;;5157758;27;20232;-54
2022/07/05 07:34:14;;;;;;;13.70;3.80;;;;;;;;;;5157927;27;20220;-54
2022/07/05 07:36:42;;;;;;;5.78;4.60;;;;;;;;;;5130532;27;20257;-58
2022/07/05 07:39:09;;;;;;;4.40;4.00;;;;;;;;;;5135622;27;20216;-51
2022/07/05 07:41:36;;;;;;;6.72;4.50;;;;;;;;;;5136727;27;20618;-56
2022/07/05 07:44:03;;;;;;;8.13;4.55;;;;;;;;;;5136378;27;20603;-54
2022/07/05 07:46:30;;;;;;;8.38;4.50;;;;;;;;;;5137153;27;20225;-56
2022/07/05 07:48:58;;;;;;;4.75;3.88;;;;;;;;;;5136821;27;20261;-57
2022/07/05 07:51:25;;;;;;;4.95;3.40;;;;;;;;;;5136844;27;20734;-58
2022/07/05 07:53:52;;;;;;;7.35;3.92;;;;;;;;;;5120802;27;20222;-56
2022/07/05 07:56:27;;;;;;;3.60;3.30;;;;;;;;;;5157791;27;20246;-57
2022/07/05 07:58:53;;;;;;;4.03;3.63;;;;;;;;;;5142014;27;20634;-57
2022/07/05 08:01:21;;;;;;;3.33;3.03;;;;;;;;;;5136977;27;20325;-57
2022/07/05 08:03:49;;;;;;;5.03;3.40;;;;;;;;;;5136456;27;20290;-57
2022/07/05 08:06:16;;;;;;;7.13;3.22;;;;;;;;;;5136308;27;20316;-57
2022/07/05 08:08:47;;;;;;;6.95;3.17;;;;;;;;;;5135617;27;20217;-57
2022/07/05 08:11:14;;;;;;;3.92;3.58;;;;;;;;;;5125617;27;20229;-57
2022/07/05 08:13:42;;;;;;;6.55;3.20;;;;;;;;;;5115503;27;20222;-55
2022/07/05 08:16:10;;;;;;;7.38;3.17;;;;;;;;;;5119550;27;20217;-53
2022/07/05 08:21:32;;;;;;;3.60;3.17;;;;;;;;;;5136550;27;20213;-55
2022/07/05 08:24:10;;;;;;;4.10;2.53;;;;;;;;;;5138022;27;20259;-52
2022/07/05 08:26:37;;;;;;;3.65;2.90;;;;;;;;;;5156771;27;20687;-55
2022/07/05 08:29:07;;;;;;;5.90;3.03;;;;;;;;;;5156729;27;20285;-53
2022/07/05 08:31:41;;;;;;;4.35;3.80;;;;;;;;;;5156640;27;20614;-53
2022/07/05 08:34:08;;;;;;;3.42;3.05;;;;;;;;;;5156845;27;20220;-55
2022/07/05 08:36:36;;;;;;;4.35;3.60;;;;;;;;;;5156534;27;20224;-55
2022/07/05 08:39:04;;;;;;;5.40;4.05;;;;;;;;;;5156042;27;20585;-55
2022/07/05 08:41:34;;;;;;;3.72;3.13;;;;;;;;;;5156368;27;20588;-55
2022/07/05 08:44:03;;;;;;;6.97;3.80;;;;;;;;;;5156164;27;20259;-57
2022/07/05 08:46:31;;;;;;;4.50;3.95;;;;;;;;;;5156901;27;20244;-56
2022/07/05 08:49:01;;;;;;;7.93;3.63;;;;;;;;;;5156712;27;20212;-57
2022/07/05 08:51:40;;;;;;;11.88;3.88;;;;;;;;;;5156380;27;20237;-56
2022/07/05 08:54:11;;;;;;;5.50;3.88;;;;;;;;;;5152472;27;20619;-56
2022/07/05 08:56:43;;;;;;;3.60;2.83;;;;;;;;;;5135234;27;20316;-56
2022/07/05 08:59:30;;;;;;;5.75;3.42;;;;;;;;;;5135610;27;20221;-57
2022/07/05 09:01:58;;;;;;;4.35;3.20;;;;;;;;;;5135247;27;20236;-60
2022/07/05 09:04:30;;;;;;;4.07;2.80;;;;;;;;;;5135022;27;20554;-58
2022/07/05 09:07:02;;;;;;;6.93;3.10;;;;;;;;;;5141312;27;20220;-57
2022/07/05 09:09:31;;;;;;;5.80;2.90;;;;;;;;;;5156484;27;20229;-58
2022/07/05 09:11:59;;;;;;;2.85;2.60;;;;;;;;;;5155520;27;20641;-57
2022/07/05 09:14:46;;;;;;;3.30;2.70;;;;;;;;;;5156609;27;20227;-57
2022/07/05 09:17:14;;;;;;;3.70;2.55;;;;;;;;;;5156992;27;20579;-57
2022/07/05 09:19:41;;;;;;;3.20;2.85;;;;;;;;;;5156990;27;20189;-56
2022/07/05 09:22:09;;;;;;;3.70;2.90;;;;;;;;;;5156892;27;20196;-58
2022/07/05 09:24:45;;;;;;;5.30;2.30;;;;;;;;;;5156843;27;20213;-58
2022/07/05 09:27:14;;;;;;;2.72;2.53;;;;;;;;;;5156922;27;20185;-58
2022/07/05 09:29:55;;;;;;;5.18;2.50;;;;;;;;;;5156424;27;20633;-59
2022/07/05 09:32:30;;;;;;;3.38;2.78;;;;;;;;;;5143093;27;20225;-57
2022/07/05 09:35:18;;;;;;;5.95;2.63;;;;;;;;;;5132092;27;20225;-59
2022/07/05 09:37:45;;;;;;;5.68;2.70;;;;;;;;;;5121916;27;20225;-58
2022/07/05 09:40:12;;;;;;;5.88;2.47;;;;;;;;;;5138547;27;20657;-58
2022/07/05 09:42:46;;;;;;;5.47;2.30;;;;;;;;;;5142586;27;20225;-58
2022/07/05 09:45:23;;;;;;;4.38;2.85;;;;;;;;;;5146196;27;20228;-57
2022/07/05 09:47:50;;;;;;;4.35;2.35;;;;;;;;;;5146800;27;20290;-58
2022/07/05 09:50:37;;;;;;;4.70;2.58;;;;;;;;;;5134421;28;20225;-57
2022/07/05 09:53:24;;;;;;;3.03;2.28;;;;;;;;;;5131872;27;20236;-58
2022/07/05 09:56:04;;;;;;;5.18;2.35;;;;;;;;;;5132156;27;20524;-58
2022/07/05 09:58:32;;;;;;;5.35;3.17;;;;;;;;;;5135642;27;20209;-58
2022/07/05 10:00:59;;;;;;;5.10;2.65;;;;;;;;;;5139253;27;20305;-57
2022/07/05 10:03:26;;;;;;;5.43;2.25;;;;;;;;;;5138398;27;20273;-57
2022/07/05 10:06:09;;;;;;;3.35;2.55;;;;;;;;;;5139156;27;20319;-57
2022/07/05 10:08:37;;;;;;;3.38;2.70;;;;;;;;;;5137521;27;20229;-58
2022/07/05 10:11:04;;;;;;;4.35;2.58;;;;;;;;;;5137485;27;20725;-57
2022/07/05 10:13:31;;;;;;;3.30;2.38;;;;;;;;;;5130580;27;20225;-57
2022/07/05 10:15:58;;;;;;;2.95;2.17;;;;;;;;;;5138797;27;20741;-56
2022/07/05 10:18:31;;;;;;;4.32;2.53;;;;;;;;;;5147955;27;20231;-56
2022/07/05 10:20:59;;;;;;;3.17;2.50;;;;;;;;;;5142313;27;20218;-57
2022/07/05 10:23:27;;;;;;;3.80;2.28;;;;;;;;;;5138456;27;20213;-57
2022/07/05 10:25:54;;;;;;;4.90;2.67;;;;;;;;;;5137154;27;20221;-58
2022/07/05 10:28:21;;;;;;;4.40;2.28;;;;;;;;;;5137687;27;20220;-56
2022/07/05 10:30:52;;;;;;;2.78;2.50;;;;;;;;;;5138633;27;20286;-57
2022/07/05 10:33:24;;;;;;;2.95;2.30;;;;;;;;;;5138132;27;20233;-57
2022/07/05 10:35:53;;;;;;;2.90;2.30;;;;;;;;;;5138365;27;20712;-55
2022/07/05 10:38:20;;;;;;;3.47;2.33;;;;;;;;;;5138137;27;20674;-56
2022/07/05 10:40:50;;;;;;;4.57;2.60;;;;;;;;;;5136677;27;20225;-51
2022/07/05 10:43:21;;;;;;;2.97;2.50;;;;;;;;;;5137935;27;20305;-57
2022/07/05 10:45:49;;;;;;;4.07;2.38;;;;;;;;;;5138515;27;20229;-55
2022/07/05 10:48:17;;;;;;;2.97;2.50;;;;;;;;;;5145542;27;20240;-52
2022/07/05 10:50:54;;;;;;;3.22;2.33;;;;;;;;;;5158969;27;20351;-55
2022/07/05 10:53:23;;;;;;;4.90;2.20;;;;;;;;;;5140604;27;20696;-60
2022/07/05 10:56:05;;;;;;;3.90;2.30;;;;;;;;;;5136006;27;20333;-58
2022/07/05 10:59:05;;;;;;;6.97;3.10;;;;;;;;;;5138042;27;20228;-57
2022/07/05 11:01:34;;;;;;;2.60;2.40;;;;;;;;;;5137190;27;20247;-57
2022/07/05 11:04:01;;;;;;;2.63;2.25;;;;;;;;;;5138219;27;20225;-57
2022/07/05 11:06:49;;;;;;;3.60;2.55;;;;;;;;;;5137210;27;20261;-58
2022/07/05 11:09:18;;;;;;;4.75;2.42;;;;;;;;;;5137476;27;20240;-58
2022/07/05 11:11:47;;;;;;;4.10;2.63;;;;;;;;;;5137386;27;20225;-57
2022/07/05 11:14:37;;;;;;;3.30;2.50;;;;;;;;;;5135134;27;20221;-59
2022/07/05 11:17:15;;;;;;;4.28;2.58;;;;;;;;;;5116419;27;20313;-59
2022/07/05 11:20:10;;;;;;;4.85;2.45;;;;;;;;;;5119693;27;20290;-58
2022/07/05 11:23:01;;;;;;;3.88;2.60;;;;;;;;;;5134606;27;20231;-58
2022/07/05 11:25:30;;;;;;;5.70;2.55;;;;;;;;;;5137031;27;20225;-56
2022/07/05 11:28:05;;;;;;;3.17;2.60;;;;;;;;;;5136381;27;20221;-59
2022/07/05 11:30:52;;;;;;;2.65;2.45;;;;;;;;;;5137353;27;20229;-59
2022/07/05 11:33:48;;;;;;;5.68;2.67;;;;;;;;;;5137074;27;20228;-58
2022/07/05 11:36:25;;;;;;;4.65;2.83;;;;;;;;;;5134326;27;20293;-57
2022/07/05 11:39:12;;;;;;;4.07;2.55;;;;;;;;;;5137091;27;20217;-61
2022/07/05 11:41:45;;;;;;;3.58;2.65;;;;;;;;;;5132321;27;20217;-53
2022/07/05 11:44:13;;;;;;;5.70;2.38;;;;;;;;;;5135920;27;20247;-54
2022/07/05 11:46:42;;;;;;;5.47;2.83;;;;;;;;;;5135071;27;20229;-52
2022/07/05 11:49:22;;;;;;;4.07;2.88;;;;;;;;;;5136658;27;20244;-50
2022/07/05 11:52:00;;;;;;;4.50;2.53;;;;;;;;;;5134990;27;20234;-57
2022/07/05 11:54:30;;;;;;;7.35;2.75;;;;;;;;;;5132656;27;20281;-55
2022/07/05 11:56:59;;;;;;;5.82;2.90;;;;;;;;;;5135196;27;20235;-56
2022/07/05 11:59:26;;;;;;;5.63;2.65;;;;;;;;;;5132859;27;20213;-49
2022/07/05 12:01:54;;;;;;;3.78;2.72;;;;;;;;;;5135227;27;20241;-50
2022/07/05 12:04:26;;;;;;;3.10;2.78;;;;;;;;;;5136444;27;20565;-49
2022/07/05 12:06:55;;;;;;;3.00;2.80;;;;;;;;;;5136729;27;20653;-50
2022/07/05 12:15:06;;;;;;;6.68;2.90;;;;;;;;;;5136927;27;20217;-49
2022/07/05 12:17:37;;;;;;;2.97;2.63;;;;;;;;;;5138201;27;20221;-54
2022/07/05 12:20:06;;;;;;;5.32;3.25;;;;;;;;;;5156683;27;20536;-50
2022/07/05 12:22:44;;;;;;;4.00;2.80;;;;;;;;;;5156528;27;20711;-48
2022/07/05 12:25:19;;;;;;;3.63;2.75;;;;;;;;;;5156701;27;20235;-48
2022/07/05 12:27:50;;;;;;;5.90;3.08;;;;;;;;;;5157090;27;20228;-48
2022/07/05 12:30:18;;;;;;;4.68;2.85;;;;;;;;;;5156819;27;20232;-52
2022/07/05 12:33:09;;;;;;;3.60;2.70;;;;;;;;;;5156181;27;20677;-53
2022/07/05 12:35:42;;;;;;;3.70;3.08;;;;;;;;;;5157111;27;20228;-55
2022/07/05 12:38:18;;;;;;;6.03;2.85;;;;;;;;;;5156929;27;20224;-49
2022/07/05 12:40:57;;;;;;;5.30;3.08;;;;;;;;;;5156373;27;20220;-55
2022/07/05 12:43:24;;;;;;;3.47;2.90;;;;;;;;;;5154367;27;20656;-54
2022/07/05 12:46:06;;;;;;;4.22;3.20;;;;;;;;;;5120012;27;20235;-54
2022/07/05 12:48:35;;;;;;;8.68;3.50;;;;;;;;;;5137149;27;20247;-52
2022/07/05 12:51:03;;;;;;;6.22;3.53;;;;;;;;;;5156538;27;20566;-56
2022/07/05 12:59:42;;;;;;;5.20;3.70;;;;;;;;;;5114619;27;20550;-56
2022/07/05 13:02:11;;;;;;;9.68;4.43;;;;;;;;;;5133353;27;20642;-48
2022/07/05 13:04:52;;;;;;;7.70;3.90;;;;;;;;;;5135327;27;20232;-49
2022/07/05 13:07:27;;;;;;;7.55;3.97;;;;;;;;;;5135661;27;20284;-50
2022/07/05 13:10:20;;;;;;;8.88;4.32;;;;;;;;;;5134916;27;20217;-52
2022/07/05 13:12:48;;;;;;;7.22;4.10;;;;;;;;;;5135891;27;20248;-52
2022/07/05 13:15:15;;;;;;;7.88;4.78;;;;;;;;;;5135233;27;20225;-53
2022/07/05 13:20:52;;;;;;;6.97;4.80;;;;;;;;;;3856564;22;20232;-61
2022/07/05 13:23:22;;;;;;;7.97;5.00;;;;;;;;;;5057933;28;20219;-58
2022/07/05 13:25:49;;;;;;;5.35;4.72;;;;;;;;;;5065513;28;20243;-59
2022/07/05 13:28:16;;;;;;;6.68;5.05;;;;;;;;;;5064199;28;20231;-59
2022/07/05 13:30:43;;;;;;;10.68;5.10;;;;;;;;;;5061880;28;20219;-60
2022/07/05 13:33:10;;;;;;;7.35;4.75;;;;;;;;;;5061192;28;20343;-59
2022/07/05 13:35:37;;;;;;;7.20;3.83;;;;;;;;;;5064714;28;20277;-62
2022/07/05 13:38:04;;;;;;;7.82;4.25;;;;;;;;;;5053690;28;20745;-58
2022/07/05 13:40:31;;;;;;;5.68;4.13;;;;;;;;;;5053930;28;20269;-60
2022/07/05 13:42:58;;;;;;;3.90;3.50;;;;;;;;;;5053755;28;20228;-63
2022/07/05 13:45:25;;;;;;;5.95;3.40;;;;;;;;;;5053670;28;20230;-57
2022/07/05 13:47:55;;;;;;;6.22;3.25;;;;;;;;;;5053661;28;20227;-58
2022/07/05 13:50:31;;;;;;;4.47;3.83;;;;;;;;;;5053161;28;20299;-54
2022/07/05 13:52:59;;;;;;;4.57;3.65;;;;;;;;;;5044125;28;20235;-56
2022/07/05 13:55:26;;;;;;;6.25;4.20;;;;;;;;;;5052742;28;20294;-59
2022/07/05 13:57:53;;;;;;;9.68;4.28;;;;;;;;;;5053425;28;20652;-50
2022/07/05 14:00:21;;;;;;;10.88;3.90;;;;;;;;;;5053372;28;20242;-58
2022/07/05 14:02:48;;;;;;;5.60;3.35;;;;;;;;;;5053489;28;20315;-59
2022/07/05 14:05:16;;;;;;;3.33;3.03;;;;;;;;;;5058567;28;20581;-50
2022/07/05 14:07:44;;;;;;;4.22;2.90;;;;;;;;;;5072982;28;20235;-61
2022/07/05 14:10:11;;;;;;;4.32;3.33;;;;;;;;;;5050774;28;20228;-60
2022/07/05 14:12:38;;;;;;;4.32;2.70;;;;;;;;;;5049509;28;20606;-54
2022/07/05 14:15:06;;;;;;;2.85;2.60;;;;;;;;;;5052715;28;20235;-60
2022/07/05 14:17:33;;;;;;;8.13;2.47;;;;;;;;;;5053533;28;20228;-61
2022/07/05 14:20:00;;;;;;;3.17;2.65;;;;;;;;;;5052808;28;20244;-60
2022/07/05 14:22:27;;;;;;;3.47;2.42;;;;;;;;;;5053434;28;20540;-59
2022/07/05 14:24:54;;;;;;;2.38;2.15;;;;;;;;;;5052573;28;20676;-59
2022/07/05 14:27:21;;;;;;;3.22;2.13;;;;;;;;;;5052116;28;20285;-60
2022/07/05 14:29:54;;;;;;;2.50;2.20;;;;;;;;;;5042391;28;20239;-57
2022/07/05 14:32:21;;;;;;;2.70;2.20;;;;;;;;;;5032997;28;20225;-50
2022/07/05 14:34:48;;;;;;;4.93;2.30;;;;;;;;;;5037009;28;20315;-48
2022/07/05 14:37:20;;;;;;;2.00;1.85;;;;;;;;;;5045523;28;20286;-51
2022/07/05 14:39:47;;;;;;;4.55;2.40;;;;;;;;;;5043969;28;20661;-53
2022/07/05 14:42:14;;;;;;;3.65;2.65;;;;;;;;;;5043876;28;20223;-51
2022/07/05 14:44:41;;;;;;;3.55;2.40;;;;;;;;;;5046700;28;20220;-49
2022/07/05 14:47:08;;;;;;;4.03;2.85;;;;;;;;;;5053363;28;20224;-54
2022/07/05 14:49:35;;;;;;;3.95;2.92;;;;;;;;;;5055993;28;20234;-54
2022/07/05 14:52:03;;;;;;;7.40;3.67;;;;;;;;;;5056758;28;20227;-55
2022/07/05 14:54:30;;;;;;;5.85;3.00;;;;;;;;;;5057027;28;20236;-49
2022/07/05 14:56:57;;;;;;;6.85;2.45;;;;;;;;;;5057008;28;20293;-50
2022/07/05 14:59:26;;;;;;;10.00;2.72;;;;;;;;;;5055776;28;20224;-52
2022/07/05 15:01:53;;;;;;;7.13;2.65;;;;;;;;;;5055614;28;20219;-60
2022/07/05 15:04:20;;;;;;;6.45;3.55;;;;;;;;;;5050368;28;20219;-48
2022/07/05 15:06:47;;;;;;;7.72;3.58;;;;;;;;;;5040799;28;20228;-50
2022/07/05 15:09:14;;;;;;;13.57;3.50;;;;;;;;;;5056449;28;20370;-52
2022/07/05 15:11:41;;;;;;;6.18;3.25;;;;;;;;;;5055673;28;20223;-50
2022/07/05 15:14:08;;;;;;;4.85;2.55;;;;;;;;;;5055729;28;20243;-46
2022/07/05 15:16:37;;;;;;;4.07;2.58;;;;;;;;;;5052826;28;20549;-52